• Join FlightAware (Why Join?)
  • Login
  • US Flag 
05:41PM EDT


 

Airport Tracker/Info


-or-


 

Live Flight TrackerFlight Track Log ✈ N488AA ✈ 07-May-2012 ✈ KDFW - KDCA

Flight Track Log - Related Links

Times and Time Zones

All times are in EDT time to prevent confusion due to time zone crossing. See the N488AA flight status page for this flight to view local times or setup timezone preferences in your user account.

Time Position Orientation Groundspeed Altitude Reporting Facility
EDT Latitude Longitude Course Direction KTS MPH feet Rate Location/Type
10:12AM 32.9333 -97.0289 15° North 185 213 1,800  Level FAA TRACON SMA TRACON (SMA)
10:12AM 32.9683 -97.0181 23° Northeast 215 247 2,800 1,800 Climbing FAA TRACON SMA TRACON (SMA)
10:13AM 33.0092 -96.9978 81° East 238 274 4,200 2,220 Climbing FAA TRACON SMA TRACON (SMA)
10:14AM 33.0167 -96.9417 97° East 268 308 5,800 2,100 Climbing FAA TRACON SMA TRACON (SMA)
10:14AM 33.0111 -96.8892 106° East 259 298 7,000 1,920 Climbing FAA TRACON SMA TRACON (SMA)
10:15AM 32.9958 -96.8275 109° East 283 326 8,400 2,220 Climbing FAA TRACON SMA TRACON (SMA)
10:16AM 32.9778 -96.7642 106° East 293 337 10,000 1,800 Climbing FAA TRACON SMA TRACON (SMA)
10:16AM 32.9636 -96.7061 106° East 300 345 10,900 1,200 Climbing FAA TRACON SMA TRACON (SMA)
10:17AM 32.9461 -96.6319 108° East 343 395 11,600 1,320 Climbing FAA TRACON SMA TRACON (SMA)
10:18AM 32.9242 -96.5517 108° East 370 426 12,700 1,380 Climbing FAA TRACON SMA TRACON (SMA)
10:18AM 32.9028 -96.4753 105° East 398 458 13,400 1,740 Climbing FAA TRACON SMA TRACON (SMA)
10:19AM 32.8825 -96.3833 101° East 416 479 15,000 1,920 Climbing FAA TRACON SMA TRACON (SMA)
10:20AM 32.8689 -96.2994 89° East 424 488 16,000 2,160 Climbing FAA TRACON SMA TRACON (SMA)
10:20AM 32.8708 -96.2028 88° East 422 486 18,000 2,040 Climbing FAA TRACON SMA TRACON (SMA)
10:21AM 32.8733 -96.1053 88° East 430 495 18,800 1,680 Climbing FAA TRACON SMA TRACON (SMA)
10:22AM 32.8753 -96.0158 91° East 440 506 20,200 1,560 Climbing FAA TRACON SMA TRACON (SMA)
10:23AM 32.8717 -95.8428 88° East 439 505 21,700 1,320 Climbing Fort Worth Center
10:24AM 32.8761 -95.7042 86° East 456 525 23,100 1,440 Climbing Fort Worth Center
10:26AM 32.8925 -95.3947 83° East 470 541 26,100 1,380 Climbing Fort Worth Center
10:27AM 32.9086 -95.2433 80° East 465 535 27,300 1,140 Climbing Fort Worth Center
10:28AM 32.9308 -95.0869 81° East 465 535 28,400 840 Climbing Fort Worth Center
10:29AM 32.9508 -94.9328 80° East 465 535 29,000 300 Climbing Fort Worth Center
10:30AM 32.9728 -94.7764 82° East 465 535 29,000  Level Fort Worth Center
10:31AM 32.9903 -94.6197 81° East 470 541 29,000  Level Fort Worth Center
10:32AM 33.0097 -94.4656 82° East 470 541 29,000  Level Fort Worth Center
10:33AM 33.0289 -94.3089 81° East 470 541 29,000  Level Fort Worth Center
10:34AM 33.0500 -94.1519 83° East 470 541 29,000  Level Fort Worth Center
10:35AM 33.0667 -93.9953 81° East 470 541 29,000  Level Fort Worth Center
10:36AM 33.0875 -93.8381 82° East 470 541 29,000  Level Fort Worth Center
10:37AM 33.1058 -93.6811 81° East 475 547 29,000  Level Fort Worth Center
10:38AM 33.1261 -93.5242 82° East 475 547 29,000  Level Fort Worth Center
10:39AM 33.1442 -93.3719 81° East 475 547 29,000  Level Fort Worth Center
10:40AM 33.1642 -93.2147 82° East 475 547 29,000  Level Fort Worth Center
10:41AM 33.1819 -93.0625 83° East 469 540 29,000  Level Fort Worth Center
10:42AM 33.1992 -92.9053 82° East 469 540 29,000  Level Fort Worth Center
10:43AM 33.2167 -92.7506 82° East 469 540 29,000  Level Fort Worth Center
10:44AM 33.2358 -92.5956 84° East 469 540 29,000  Level Fort Worth Center
10:46AM 33.2669 -92.2628 80° East 461 531 29,000  Level Memphis Center
10:47AM 33.2881 -92.1117 84° East 461 531 29,000  Level Memphis Center
10:48AM 33.3006 -91.9603 82° East 461 531 29,000  Level Memphis Center
10:49AM 33.3192 -91.8067 84° East 461 531 29,000  Level Memphis Center
10:50AM 33.3333 -91.6403 83° East 461 531 29,000  Level Memphis Center
10:51AM 33.3472 -91.5011 83° East 467 537 29,000  Level Memphis Center
10:52AM 33.3631 -91.3472 85° East 467 537 29,000  Level Memphis Center
10:53AM 33.3747 -91.1931 82° East 462 532 29,000  Level Memphis Center
10:54AM 33.3925 -91.0389 84° East 462 532 29,000  Level Memphis Center
10:55AM 33.4056 -90.8822 82° East 462 532 29,000  Level Memphis Center
10:56AM 33.4228 -90.7256 84° East 462 532 29,000  Level Memphis Center
10:57AM 33.4358 -90.5739 83° East 462 532 29,000  Level Memphis Center
10:58AM 33.4506 -90.4194 84° East 462 532 29,000  Level Memphis Center
10:59AM 33.4631 -90.2675 88° East 462 532 29,000  Level Memphis Center
11:00AM 33.4669 -90.1106 88° East 462 532 29,000  Level Memphis Center
11:01AM 33.4708 -89.9564 89° East 462 532 29,000  Level Memphis Center
11:02AM 33.4722 -89.8044 89° East 462 532 29,000  Level Memphis Center
11:03AM 33.4736 -89.6525 89° East 457 526 29,000  Level Memphis Center
11:04AM 33.4767 -89.4981 89° East 457 526 29,000  Level Memphis Center
11:05AM 33.4778 -89.3461 89° East 457 526 29,000  Level Memphis Center
11:06AM 33.4806 -89.1892 89° East 457 526 29,000  Level Memphis Center
11:07AM 33.4831 -89.0347 90° East 462 532 29,000  Level Memphis Center
11:08AM 33.4836 -88.8828 90° East 462 532 29,000  Level Memphis Center
11:09AM 33.4836 -88.7283 88° East 462 532 29,000  Level Memphis Center
11:10AM 33.4878 -88.5764 85° East 462 532 29,000  Level Memphis Center
11:11AM 33.5000 -88.4217 84° East 462 532 29,000  Level Memphis Center
11:12AM 33.5144 -88.2669 83° East 462 532 29,000  Level Memphis Center
11:13AM 33.5306 -88.1144 82° East 462 532 29,000  Level Memphis Center
11:14AM 33.5483 -87.9569 82° East 462 532 29,000  Level Memphis Center
11:16AM 33.5881 -87.6122 82° East 460 529 29,000  Level Atlanta Center
11:17AM 33.6069 -87.4558 83° East 465 535 29,000  Level Atlanta Center
11:18AM 33.6239 -87.2969 83° East 465 535 29,000  Level Atlanta Center
11:19AM 33.6403 -87.1428 82° East 465 535 29,000  Level Atlanta Center
11:20AM 33.6589 -86.9861 86° East 465 535 29,000  Level Atlanta Center
11:21AM 33.6658 -86.8642 89° East 465 535 29,000  Level Atlanta Center
11:22AM 33.6675 -86.6919 91° East 465 535 29,000  Level Atlanta Center
11:23AM 33.6647 -86.5347 90° East 465 535 29,000  Level Atlanta Center
11:24AM 33.6636 -86.3775 90° East 465 535 29,000  Level Atlanta Center
11:25AM 33.6644 -86.2178 92° East 465 535 29,000  Level Atlanta Center
11:26AM 33.6608 -86.0581 91° East 465 535 29,000  Level Atlanta Center
11:27AM 33.6592 -85.9006 90° East 470 541 29,000  Level Atlanta Center
11:28AM 33.6594 -85.7308 91° East 470 541 29,000  Level Atlanta Center
11:29AM 33.6572 -85.5761 91° East 465 535 29,000  Level Atlanta Center
11:30AM 33.6550 -85.4164 93° East 465 535 29,000  Level Atlanta Center
11:31AM 33.6483 -85.2592 91° East 472 543 29,000  Level Atlanta Center
11:32AM 33.6456 -85.1019 92° East 477 549 29,000  Level Atlanta Center
11:33AM 33.6406 -84.9444 92° East 475 547 29,000  Level Atlanta Center
11:36AM 33.6286 -84.4581 88° East 475 547 29,000 180 Level Atlanta Center
11:37AM 33.6333 -84.3033 79° East 469 540 29,800 600 Climbing Atlanta Center
11:38AM 33.6606 -84.1361 52° Northeast 469 540 30,300 240 Climbing Atlanta Center
11:42AM 33.9439 -83.6908 53° Northeast 447 514 31,000 60 Climbing Atlanta Center
11:47AM 34.3433 -83.0575 52° Northeast 453 521 31,000  Level Atlanta Center
11:48AM 34.4236 -82.9308 53° Northeast 458 527 31,000  Level Atlanta Center
11:49AM 34.4997 -82.8064 54° Northeast 458 527 31,000  Level Atlanta Center
11:50AM 34.5736 -82.6842 54° Northeast 458 527 31,000  Level Atlanta Center
11:51AM 34.6472 -82.5592 52° Northeast 458 527 31,000  Level Atlanta Center
11:52AM 34.7231 -82.4392 55° Northeast 458 527 31,000  Level Atlanta Center
11:53AM 34.7964 -82.3136 53° Northeast 458 527 31,000  Level Atlanta Center
11:54AM 34.8739 -82.1881 52° Northeast 458 527 31,000  Level Atlanta Center
11:55AM 34.9575 -82.0594 55° Northeast 453 521 31,000  Level Atlanta Center
11:56AM 35.0306 -81.9333 55° Northeast 453 521 31,000  Level Atlanta Center
11:57AM 35.1033 -81.8072 55° Northeast 453 521 31,000  Level Atlanta Center
11:58AM 35.1681 -81.6936 56° Northeast 458 527 31,000  Level Atlanta Center
11:59AM 35.2386 -81.5669 55° Northeast 458 527 31,000  Level Atlanta Center
12:00PM 35.3111 -81.4403 56° Northeast 458 527 31,000  Level Atlanta Center
12:01PM 35.3833 -81.3106 56° Northeast 453 521 31,000  Level Atlanta Center
12:02PM 35.4533 -81.1808 56° Northeast 453 521 31,000  Level Atlanta Center
12:03PM 35.5253 -81.0506 55° Northeast 458 527 31,000  Level Atlanta Center
12:04PM 35.5972 -80.9228 55° Northeast 458 527 31,000  Level Atlanta Center
12:05PM 35.6692 -80.7947 55° Northeast 459 528 31,000  Level Atlanta Center
12:06PM 35.7408 -80.6692 56° Northeast 452 520 31,000  Level Atlanta Center
12:09PM 35.9197 -80.3422 56° Northeast 454 522 31,000  Level Washington Center
12:10PM 35.9872 -80.2178 56° Northeast 449 517 31,000  Level Washington Center
12:11PM 36.0500 -80.1033 56° Northeast 449 517 31,000  Level Washington Center
12:12PM 36.1172 -79.9811 56° Northeast 436 502 31,000  Level Washington Center
12:13PM 36.1867 -79.8539 57° Northeast 431 496 31,000 -420 Level Washington Center
12:14PM 36.2603 -79.7136 56° Northeast 437 503 30,200 -840 Descending Washington Center
12:15PM 36.3225 -79.6008 57° Northeast 437 503 29,300 -900 Descending Washington Center
12:16PM 36.3894 -79.4728 57° Northeast 443 510 28,400 -720 Descending Washington Center
12:17PM 36.4561 -79.3442 57° Northeast 443 510 28,000 -480 Descending Washington Center
12:18PM 36.5292 -79.2056 54° Northeast 443 510 27,500 -780 Descending Washington Center
12:19PM 36.5975 -79.0897 58° Northeast 430 495 26,500 -1,080 Descending Washington Center
12:20PM 36.6592 -78.9683 58° Northeast 412 474 25,400 -780 Descending Washington Center
12:21PM 36.7211 -78.8439 56° Northeast 412 474 25,000 -240 Descending Washington Center
12:22PM 36.7825 -78.7297 57° Northeast 418 481 25,000  Level Washington Center
12:23PM 36.8442 -78.6103 57° Northeast 418 481 25,000  Level Washington Center
12:24PM 36.9097 -78.4856 57° Northeast 418 481 25,000  Level Washington Center
12:25PM 36.9819 -78.3478 58° Northeast 424 488 25,000  Level Washington Center
12:26PM 37.0453 -78.2228 57° Northeast 424 488 25,000  Level Washington Center
12:27PM 37.1039 -78.1100 58° Northeast 424 488 25,000  Level Washington Center
12:28PM 37.1669 -77.9844 58° Northeast 424 488 25,000  Level Washington Center
12:29PM 37.2300 -77.8586 57° Northeast 424 488 25,000 -480 Level Washington Center
12:30PM 37.2947 -77.7325 58° Northeast 424 488 24,100 -1,380 Descending Washington Center
12:31PM 37.3575 -77.6064 57° Northeast 424 488 22,300 -1,380 Descending Washington Center
12:32PM 37.4222 -77.4825 58° Northeast 424 488 21,400 -660 Descending Washington Center
12:33PM 37.4825 -77.3608 23° Northeast 418 481 21,000 -240 Descending Washington Center
12:34PM 37.5811 -77.3083 11° North 390 449 21,000 -1,020 Level Washington Center
12:35PM 37.6900 -77.2819 North 373 429 19,000 -1,860 Descending Washington Center
12:36PM 37.7944 -77.2606 10° North 378 435 17,400 -1,800 Descending Washington Center
12:37PM 37.8950 -77.2392 North 373 429 15,400 -1,920 Descending Washington Center
12:38PM 37.9953 -77.2203 10° North 368 423 13,600 -1,740 Descending Washington Center
12:39PM 38.0936 -77.1986 10° North 363 418 12,000 -1,560 Descending Washington Center
12:40PM 38.1878 -77.1767 North 353 406 10,500 -1,020 Descending Washington Center
12:41PM 38.2778 -77.1575 North 343 395 10,000 -300 Descending Washington Center
12:42PM 38.3717 -77.1411 North 337 388 10,000  Level Washington Center
12:43PM 38.4639 -77.1217 North 332 382 10,000  Level Washington Center
12:44PM 38.5558 -77.1022 North 332 382 10,000  Level Washington Center
12:45PM 38.6500 -77.0833 11° North 327 376 10,000 -420 Level Potomac TRACON
12:46PM 38.7167 -77.0667 351° North 282 325 9,300 -1,200 Descending Potomac TRACON
12:47PM 38.8000 -77.0833 314° West 283 326 7,700 -1,500 Descending Potomac TRACON
12:48PM 38.8500 -77.1500 314° West 262 302 6,400 -1,200 Descending Potomac TRACON
12:49PM 38.9000 -77.2167 322° Northwest 235 270 5,300 -720 Descending Potomac TRACON
12:50PM 38.9500 -77.2667 322° Northwest 190 219 5,000 -180 Descending Potomac TRACON
12:51PM 38.9833 -77.3000 21° North 179 206 5,000  Level Potomac TRACON
12:52PM 39.0167 -77.2833 108° East 212 244 5,000 -300 Level Potomac TRACON
12:52PM 39.0000 -77.2167 113° Southeast 193 222 4,500 -900 Descending Potomac TRACON
12:53PM 38.9833 -77.1667 142° Southeast 166 191 3,300 -1,200 Descending Potomac TRACON
12:54PM 38.9500 -77.1333 142° Southeast 169 194 2,300 -780 Descending Potomac TRACON
12:55PM 38.9167 -77.1000 247° West 151 174 1,900 180 Descending Potomac TRACON
12:56PM 38.9000 -77.1500 256° West 200 230 2,700 540 Climbing Potomac TRACON
12:57PM 38.8833 -77.2333 180° South 208 239 3,000 180 Climbing Potomac TRACON
12:58PM 38.8500 -77.2333 180° South 208 239 3,100 60 Climbing Potomac TRACON